sensor_id;sensor_type;location;lat;lon;timestamp;temperature;humidity
20726;DHT22;10524;48.132;8.518;2024-02-15T00:00:22;3.70;99.90
20726;DHT22;10524;48.132;8.518;2024-02-15T00:02:48;3.80;99.90
20726;DHT22;10524;48.132;8.518;2024-02-15T00:05:14;3.90;99.90
20726;DHT22;10524;48.132;8.518;2024-02-15T00:07:41;4.00;99.90
20726;DHT22;10524;48.132;8.518;2024-02-15T00:10:07;4.10;99.90
20726;DHT22;10524;48.132;8.518;2024-02-15T00:12:34;4.00;99.90
20726;DHT22;10524;48.132;8.518;2024-02-15T00:15:00;3.90;99.90
20726;DHT22;10524;48.132;8.518;2024-02-15T00:17:27;4.00;99.90
20726;DHT22;10524;48.132;8.518;2024-02-15T00:19:55;4.20;99.90
20726;DHT22;10524;48.132;8.518;2024-02-15T00:22:20;4.40;99.90
20726;DHT22;10524;48.132;8.518;2024-02-15T00:24:47;4.50;99.90
20726;DHT22;10524;48.132;8.518;2024-02-15T00:27:15;4.60;99.90
20726;DHT22;10524;48.132;8.518;2024-02-15T00:29:41;4.80;99.90
20726;DHT22;10524;48.132;8.518;2024-02-15T00:32:08;5.00;99.90
20726;DHT22;10524;48.132;8.518;2024-02-15T00:34:36;5.10;99.90
20726;DHT22;10524;48.132;8.518;2024-02-15T00:37:04;5.10;99.90
20726;DHT22;10524;48.132;8.518;2024-02-15T00:39:30;5.10;99.90
20726;DHT22;10524;48.132;8.518;2024-02-15T00:41:58;5.00;99.90
20726;DHT22;10524;48.132;8.518;2024-02-15T00:44:26;4.90;99.90
20726;DHT22;10524;48.132;8.518;2024-02-15T00:46:52;4.70;99.90
20726;DHT22;10524;48.132;8.518;2024-02-15T00:49:18;4.30;99.90
20726;DHT22;10524;48.132;8.518;2024-02-15T00:51:46;3.90;99.90
20726;DHT22;10524;48.132;8.518;2024-02-15T00:54:12;3.70;99.90
20726;DHT22;10524;48.132;8.518;2024-02-15T00:56:38;3.50;99.90
20726;DHT22;10524;48.132;8.518;2024-02-15T00:59:05;3.30;99.90
20726;DHT22;10524;48.132;8.518;2024-02-15T01:01:31;3.30;99.90
20726;DHT22;10524;48.132;8.518;2024-02-15T01:03:57;3.60;99.90
20726;DHT22;10524;48.132;8.518;2024-02-15T01:06:23;3.60;99.90
20726;DHT22;10524;48.132;8.518;2024-02-15T01:08:49;3.40;99.90
20726;DHT22;10524;48.132;8.518;2024-02-15T01:11:15;3.30;99.90
20726;DHT22;10524;48.132;8.518;2024-02-15T01:13:42;3.20;99.90
20726;DHT22;10524;48.132;8.518;2024-02-15T01:16:07;3.00;99.90
20726;DHT22;10524;48.132;8.518;2024-02-15T01:18:33;2.70;99.90
20726;DHT22;10524;48.132;8.518;2024-02-15T01:21:00;2.60;99.90
20726;DHT22;10524;48.132;8.518;2024-02-15T01:23:26;2.50;99.90
20726;DHT22;10524;48.132;8.518;2024-02-15T01:25:52;2.40;99.90
20726;DHT22;10524;48.132;8.518;2024-02-15T01:28:18;2.40;99.90
20726;DHT22;10524;48.132;8.518;2024-02-15T01:30:44;2.50;99.90
20726;DHT22;10524;48.132;8.518;2024-02-15T01:33:12;2.60;99.90
20726;DHT22;10524;48.132;8.518;2024-02-15T01:35:38;2.90;99.90
20726;DHT22;10524;48.132;8.518;2024-02-15T01:38:07;3.00;99.90
20726;DHT22;10524;48.132;8.518;2024-02-15T01:40:33;3.00;99.90
20726;DHT22;10524;48.132;8.518;2024-02-15T01:42:58;2.90;99.90
20726;DHT22;10524;48.132;8.518;2024-02-15T01:45:26;2.80;99.90
20726;DHT22;10524;48.132;8.518;2024-02-15T01:47:52;3.00;99.90
20726;DHT22;10524;48.132;8.518;2024-02-15T01:50:19;3.30;99.90
20726;DHT22;10524;48.132;8.518;2024-02-15T01:52:47;3.60;99.90
20726;DHT22;10524;48.132;8.518;2024-02-15T01:55:14;3.60;99.90
20726;DHT22;10524;48.132;8.518;2024-02-15T01:57:44;3.50;99.90
20726;DHT22;10524;48.132;8.518;2024-02-15T02:00:11;3.00;99.90
20726;DHT22;10524;48.132;8.518;2024-02-15T02:02:40;2.70;99.90
20726;DHT22;10524;48.132;8.518;2024-02-15T02:05:07;2.30;99.90
20726;DHT22;10524;48.132;8.518;2024-02-15T02:07:33;2.20;99.90
20726;DHT22;10524;48.132;8.518;2024-02-15T02:09:59;2.00;99.90
20726;DHT22;10524;48.132;8.518;2024-02-15T02:12:25;1.90;99.90
20726;DHT22;10524;48.132;8.518;2024-02-15T02:14:55;2.20;99.90
20726;DHT22;10524;48.132;8.518;2024-02-15T02:17:21;2.40;99.90
20726;DHT22;10524;48.132;8.518;2024-02-15T02:19:47;2.50;99.90
20726;DHT22;10524;48.132;8.518;2024-02-15T02:22:16;2.60;99.90
20726;DHT22;10524;48.132;8.518;2024-02-15T02:25:10;2.70;99.90
20726;DHT22;10524;48.132;8.518;2024-02-15T02:27:39;2.60;99.90
20726;DHT22;10524;48.132;8.518;2024-02-15T02:30:11;2.40;99.90
20726;DHT22;10524;48.132;8.518;2024-02-15T02:32:41;2.10;99.90
20726;DHT22;10524;48.132;8.518;2024-02-15T02:35:07;2.00;99.90
20726;DHT22;10524;48.132;8.518;2024-02-15T02:37:33;1.90;99.90
20726;DHT22;10524;48.132;8.518;2024-02-15T02:40:03;1.80;99.90
20726;DHT22;10524;48.132;8.518;2024-02-15T02:42:29;1.70;99.90
20726;DHT22;10524;48.132;8.518;2024-02-15T02:44:55;1.80;99.90
20726;DHT22;10524;48.132;8.518;2024-02-15T02:47:21;2.00;99.90
20726;DHT22;10524;48.132;8.518;2024-02-15T02:49:47;2.20;99.90
20726;DHT22;10524;48.132;8.518;2024-02-15T02:52:13;2.30;99.90
20726;DHT22;10524;48.132;8.518;2024-02-15T02:54:38;2.40;99.90
20726;DHT22;10524;48.132;8.518;2024-02-15T02:57:04;2.30;99.90
20726;DHT22;10524;48.132;8.518;2024-02-15T02:59:33;2.10;99.90
20726;DHT22;10524;48.132;8.518;2024-02-15T03:01:59;2.00;99.90
20726;DHT22;10524;48.132;8.518;2024-02-15T03:04:25;2.00;99.90
20726;DHT22;10524;48.132;8.518;2024-02-15T03:06:50;2.00;99.90
20726;DHT22;10524;48.132;8.518;2024-02-15T03:09:16;2.00;99.90
20726;DHT22;10524;48.132;8.518;2024-02-15T03:11:42;2.10;99.90
20726;DHT22;10524;48.132;8.518;2024-02-15T03:14:08;2.10;99.90
20726;DHT22;10524;48.132;8.518;2024-02-15T03:16:34;2.20;99.90
20726;DHT22;10524;48.132;8.518;2024-02-15T03:19:00;2.10;99.90
20726;DHT22;10524;48.132;8.518;2024-02-15T03:21:30;1.90;99.90
20726;DHT22;10524;48.132;8.518;2024-02-15T03:23:55;1.70;99.90
20726;DHT22;10524;48.132;8.518;2024-02-15T03:26:31;1.60;99.90
20726;DHT22;10524;48.132;8.518;2024-02-15T03:29:06;1.60;99.90
20726;DHT22;10524;48.132;8.518;2024-02-15T03:31:35;1.60;99.90
20726;DHT22;10524;48.132;8.518;2024-02-15T03:34:05;1.60;99.90
20726;DHT22;10524;48.132;8.518;2024-02-15T03:36:31;1.60;99.90
20726;DHT22;10524;48.132;8.518;2024-02-15T03:38:57;1.70;99.90
20726;DHT22;10524;48.132;8.518;2024-02-15T03:41:23;1.80;99.90
20726;DHT22;10524;48.132;8.518;2024-02-15T03:43:49;1.70;99.90
20726;DHT22;10524;48.132;8.518;2024-02-15T03:46:14;1.50;99.90
20726;DHT22;10524;48.132;8.518;2024-02-15T03:48:43;1.40;99.90
20726;DHT22;10524;48.132;8.518;2024-02-15T03:51:09;1.30;99.90
20726;DHT22;10524;48.132;8.518;2024-02-15T03:53:35;1.20;99.90
20726;DHT22;10524;48.132;8.518;2024-02-15T03:56:05;1.20;99.90
20726;DHT22;10524;48.132;8.518;2024-02-15T03:58:32;1.10;99.90
20726;DHT22;10524;48.132;8.518;2024-02-15T04:00:59;1.20;99.90
20726;DHT22;10524;48.132;8.518;2024-02-15T04:03:25;1.20;99.90
20726;DHT22;10524;48.132;8.518;2024-02-15T04:05:50;1.30;99.90
20726;DHT22;10524;48.132;8.518;2024-02-15T04:08:16;1.30;99.90
20726;DHT22;10524;48.132;8.518;2024-02-15T04:10:42;1.40;99.90
20726;DHT22;10524;48.132;8.518;2024-02-15T04:13:09;1.50;99.90
20726;DHT22;10524;48.132;8.518;2024-02-15T04:15:34;1.50;99.90
20726;DHT22;10524;48.132;8.518;2024-02-15T04:18:00;1.50;99.90
20726;DHT22;10524;48.132;8.518;2024-02-15T04:20:26;1.30;99.90
20726;DHT22;10524;48.132;8.518;2024-02-15T04:22:52;1.10;99.90
20726;DHT22;10524;48.132;8.518;2024-02-15T04:25:20;1.10;99.90
20726;DHT22;10524;48.132;8.518;2024-02-15T04:27:48;1.10;99.90
20726;DHT22;10524;48.132;8.518;2024-02-15T04:30:15;1.10;99.90
20726;DHT22;10524;48.132;8.518;2024-02-15T04:32:44;0.90;99.90
20726;DHT22;10524;48.132;8.518;2024-02-15T04:35:10;0.90;99.90
20726;DHT22;10524;48.132;8.518;2024-02-15T04:37:37;0.90;99.90
20726;DHT22;10524;48.132;8.518;2024-02-15T04:40:03;1.00;99.90
20726;DHT22;10524;48.132;8.518;2024-02-15T04:42:36;1.10;99.90
20726;DHT22;10524;48.132;8.518;2024-02-15T04:45:12;1.10;99.90
20726;DHT22;10524;48.132;8.518;2024-02-15T04:47:41;1.00;99.90
20726;DHT22;10524;48.132;8.518;2024-02-15T04:50:07;0.80;99.90
20726;DHT22;10524;48.132;8.518;2024-02-15T04:52:34;0.80;99.90
20726;DHT22;10524;48.132;8.518;2024-02-15T04:55:01;0.80;99.90
20726;DHT22;10524;48.132;8.518;2024-02-15T04:57:30;0.80;99.90
20726;DHT22;10524;48.132;8.518;2024-02-15T04:59:56;0.70;99.90
20726;DHT22;10524;48.132;8.518;2024-02-15T05:02:21;0.60;99.90
20726;DHT22;10524;48.132;8.518;2024-02-15T05:04:50;0.40;99.90
20726;DHT22;10524;48.132;8.518;2024-02-15T05:07:22;0.30;99.90
20726;DHT22;10524;48.132;8.518;2024-02-15T05:09:51;0.40;99.90
20726;DHT22;10524;48.132;8.518;2024-02-15T05:12:23;0.40;99.90
20726;DHT22;10524;48.132;8.518;2024-02-15T05:14:53;0.20;99.90
20726;DHT22;10524;48.132;8.518;2024-02-15T05:17:19;0.20;99.90
20726;DHT22;10524;48.132;8.518;2024-02-15T05:19:45;0.20;99.90
20726;DHT22;10524;48.132;8.518;2024-02-15T05:22:10;0.20;99.90
20726;DHT22;10524;48.132;8.518;2024-02-15T05:24:36;0.20;99.90
20726;DHT22;10524;48.132;8.518;2024-02-15T05:27:04;0.20;99.90
20726;DHT22;10524;48.132;8.518;2024-02-15T05:29:30;0.40;99.90
20726;DHT22;10524;48.132;8.518;2024-02-15T05:32:00;0.30;99.90
20726;DHT22;10524;48.132;8.518;2024-02-15T05:34:26;0.20;99.90
20726;DHT22;10524;48.132;8.518;2024-02-15T05:36:51;0.00;99.90
20726;DHT22;10524;48.132;8.518;2024-02-15T05:39:17;-0.10;99.90
20726;DHT22;10524;48.132;8.518;2024-02-15T05:41:47;-0.20;99.90
20726;DHT22;10524;48.132;8.518;2024-02-15T05:44:13;-0.30;99.90
20726;DHT22;10524;48.132;8.518;2024-02-15T05:46:43;-0.30;99.90
20726;DHT22;10524;48.132;8.518;2024-02-15T05:49:09;-0.20;99.90
20726;DHT22;10524;48.132;8.518;2024-02-15T05:51:41;-0.20;99.90
20726;DHT22;10524;48.132;8.518;2024-02-15T05:54:06;-0.10;99.90
20726;DHT22;10524;48.132;8.518;2024-02-15T05:56:32;-0.10;99.90
20726;DHT22;10524;48.132;8.518;2024-02-15T05:58:58;0.00;99.90
20726;DHT22;10524;48.132;8.518;2024-02-15T06:01:24;0.00;99.90
20726;DHT22;10524;48.132;8.518;2024-02-15T06:03:50;0.20;99.90
20726;DHT22;10524;48.132;8.518;2024-02-15T06:06:20;0.20;99.90
20726;DHT22;10524;48.132;8.518;2024-02-15T06:08:47;0.00;99.90
20726;DHT22;10524;48.132;8.518;2024-02-15T06:11:13;-0.20;99.90
20726;DHT22;10524;48.132;8.518;2024-02-15T06:13:40;-0.20;99.90
20726;DHT22;10524;48.132;8.518;2024-02-15T06:16:06;-0.20;99.90
20726;DHT22;10524;48.132;8.518;2024-02-15T06:18:35;0.10;99.90
20726;DHT22;10524;48.132;8.518;2024-02-15T06:21:01;0.20;99.90
20726;DHT22;10524;48.132;8.518;2024-02-15T06:23:27;0.10;99.90
20726;DHT22;10524;48.132;8.518;2024-02-15T06:25:56;0.10;99.90
20726;DHT22;10524;48.132;8.518;2024-02-15T06:28:23;0.20;99.90
20726;DHT22;10524;48.132;8.518;2024-02-15T06:31:08;0.30;99.90
20726;DHT22;10524;48.132;8.518;2024-02-15T06:33:53;0.30;99.90
20726;DHT22;10524;48.132;8.518;2024-02-15T06:36:47;0.40;99.90
20726;DHT22;10524;48.132;8.518;2024-02-15T06:39:32;0.40;99.90
20726;DHT22;10524;48.132;8.518;2024-02-15T06:42:07;0.40;99.90
20726;DHT22;10524;48.132;8.518;2024-02-15T06:44:33;0.40;99.90
20726;DHT22;10524;48.132;8.518;2024-02-15T06:46:58;0.60;99.90
20726;DHT22;10524;48.132;8.518;2024-02-15T06:49:25;0.70;99.90
20726;DHT22;10524;48.132;8.518;2024-02-15T06:51:51;0.80;99.90
20726;DHT22;10524;48.132;8.518;2024-02-15T06:54:17;0.80;99.90
20726;DHT22;10524;48.132;8.518;2024-02-15T06:56:44;0.80;99.90
20726;DHT22;10524;48.132;8.518;2024-02-15T06:59:12;0.90;99.90
20726;DHT22;10524;48.132;8.518;2024-02-15T07:01:42;1.00;99.90
20726;DHT22;10524;48.132;8.518;2024-02-15T07:04:09;1.20;99.90
20726;DHT22;10524;48.132;8.518;2024-02-15T07:06:38;1.50;99.90
20726;DHT22;10524;48.132;8.518;2024-02-15T07:09:07;1.80;99.90
20726;DHT22;10524;48.132;8.518;2024-02-15T07:11:33;2.00;99.90
20726;DHT22;10524;48.132;8.518;2024-02-15T07:14:02;2.10;99.90
20726;DHT22;10524;48.132;8.518;2024-02-15T07:16:30;2.20;99.90
20726;DHT22;10524;48.132;8.518;2024-02-15T07:18:55;2.30;99.90
20726;DHT22;10524;48.132;8.518;2024-02-15T07:21:22;2.30;99.90
20726;DHT22;10524;48.132;8.518;2024-02-15T07:23:56;2.40;99.90
20726;DHT22;10524;48.132;8.518;2024-02-15T07:26:23;2.50;99.90
20726;DHT22;10524;48.132;8.518;2024-02-15T07:28:55;2.60;99.90
20726;DHT22;10524;48.132;8.518;2024-02-15T07:31:22;2.70;99.90
20726;DHT22;10524;48.132;8.518;2024-02-15T07:33:49;3.10;99.90
20726;DHT22;10524;48.132;8.518;2024-02-15T07:36:20;3.60;99.90
20726;DHT22;10524;48.132;8.518;2024-02-15T07:38:53;4.00;99.90
20726;DHT22;10524;48.132;8.518;2024-02-15T07:41:20;4.70;99.90
20726;DHT22;10524;48.132;8.518;2024-02-15T07:43:48;5.30;99.90
20726;DHT22;10524;48.132;8.518;2024-02-15T07:46:15;5.70;99.90
20726;DHT22;10524;48.132;8.518;2024-02-15T07:48:45;6.10;99.90
20726;DHT22;10524;48.132;8.518;2024-02-15T07:51:16;7.00;99.90
20726;DHT22;10524;48.132;8.518;2024-02-15T07:53:43;7.80;99.90
20726;DHT22;10524;48.132;8.518;2024-02-15T07:56:10;8.70;99.90
20726;DHT22;10524;48.132;8.518;2024-02-15T07:58:41;9.20;99.90
20726;DHT22;10524;48.132;8.518;2024-02-15T08:01:08;10.40;99.90
20726;DHT22;10524;48.132;8.518;2024-02-15T08:03:36;11.30;99.90
20726;DHT22;10524;48.132;8.518;2024-02-15T08:06:02;11.20;99.90
20726;DHT22;10524;48.132;8.518;2024-02-15T08:08:33;11.30;99.90
20726;DHT22;10524;48.132;8.518;2024-02-15T08:11:04;11.20;99.90
20726;DHT22;10524;48.132;8.518;2024-02-15T08:13:30;11.30;99.90
20726;DHT22;10524;48.132;8.518;2024-02-15T08:15:56;11.80;99.90
20726;DHT22;10524;48.132;8.518;2024-02-15T08:18:22;12.30;99.90
20726;DHT22;10524;48.132;8.518;2024-02-15T08:20:50;13.10;99.90
20726;DHT22;10524;48.132;8.518;2024-02-15T08:23:16;12.40;99.90
20726;DHT22;10524;48.132;8.518;2024-02-15T08:25:41;11.90;99.90
20726;DHT22;10524;48.132;8.518;2024-02-15T08:28:07;11.80;99.90
20726;DHT22;10524;48.132;8.518;2024-02-15T08:30:33;11.50;99.90
20726;DHT22;10524;48.132;8.518;2024-02-15T08:32:59;11.80;99.90
20726;DHT22;10524;48.132;8.518;2024-02-15T08:35:25;12.40;99.90
20726;DHT22;10524;48.132;8.518;2024-02-15T08:37:51;13.30;99.90
20726;DHT22;10524;48.132;8.518;2024-02-15T08:40:18;13.00;99.90
20726;DHT22;10524;48.132;8.518;2024-02-15T08:42:50;13.20;99.90
20726;DHT22;10524;48.132;8.518;2024-02-15T08:45:15;13.20;99.90
20726;DHT22;10524;48.132;8.518;2024-02-15T08:47:43;13.70;99.90
20726;DHT22;10524;48.132;8.518;2024-02-15T08:50:11;13.60;99.90
20726;DHT22;10524;48.132;8.518;2024-02-15T08:52:40;14.30;99.90
20726;DHT22;10524;48.132;8.518;2024-02-15T08:55:07;14.80;99.90
20726;DHT22;10524;48.132;8.518;2024-02-15T08:57:35;14.10;99.90
20726;DHT22;10524;48.132;8.518;2024-02-15T09:00:04;14.00;99.90
20726;DHT22;10524;48.132;8.518;2024-02-15T09:02:45;13.60;99.90
20726;DHT22;10524;48.132;8.518;2024-02-15T09:05:11;13.30;99.90
20726;DHT22;10524;48.132;8.518;2024-02-15T09:07:42;13.00;99.90
20726;DHT22;10524;48.132;8.518;2024-02-15T09:10:11;12.50;99.90
20726;DHT22;10524;48.132;8.518;2024-02-15T09:12:38;12.20;99.90
20726;DHT22;10524;48.132;8.518;2024-02-15T09:15:11;12.10;99.90
20726;DHT22;10524;48.132;8.518;2024-02-15T09:17:37;12.10;99.90
20726;DHT22;10524;48.132;8.518;2024-02-15T09:20:10;12.00;99.90
20726;DHT22;10524;48.132;8.518;2024-02-15T09:25:11;12.00;99.90
20726;DHT22;10524;48.132;8.518;2024-02-15T09:27:39;12.80;99.90
20726;DHT22;10524;48.132;8.518;2024-02-15T09:30:05;13.60;99.90
20726;DHT22;10524;48.132;8.518;2024-02-15T09:32:40;13.90;99.90
20726;DHT22;10524;48.132;8.518;2024-02-15T09:35:07;13.80;99.90
20726;DHT22;10524;48.132;8.518;2024-02-15T09:37:36;13.60;99.90
20726;DHT22;10524;48.132;8.518;2024-02-15T09:40:09;13.70;99.90
20726;DHT22;10524;48.132;8.518;2024-02-15T09:42:36;13.50;99.90
20726;DHT22;10524;48.132;8.518;2024-02-15T09:45:02;12.90;99.90
20726;DHT22;10524;48.132;8.518;2024-02-15T09:47:35;12.80;99.90
20726;DHT22;10524;48.132;8.518;2024-02-15T09:50:10;12.40;99.90
20726;DHT22;10524;48.132;8.518;2024-02-15T09:52:43;12.70;99.90
20726;DHT22;10524;48.132;8.518;2024-02-15T09:55:10;12.80;99.90
20726;DHT22;10524;48.132;8.518;2024-02-15T09:57:42;12.70;99.90
20726;DHT22;10524;48.132;8.518;2024-02-15T10:00:10;12.40;99.90
20726;DHT22;10524;48.132;8.518;2024-02-15T10:02:41;12.20;99.90
20726;DHT22;10524;48.132;8.518;2024-02-15T10:05:08;12.10;99.90
20726;DHT22;10524;48.132;8.518;2024-02-15T10:07:43;12.60;99.90
20726;DHT22;10524;48.132;8.518;2024-02-15T10:10:17;12.80;99.90
20726;DHT22;10524;48.132;8.518;2024-02-15T10:12:48;13.00;99.90
20726;DHT22;10524;48.132;8.518;2024-02-15T10:15:37;12.70;99.90
20726;DHT22;10524;48.132;8.518;2024-02-15T10:18:08;12.80;99.90
20726;DHT22;10524;48.132;8.518;2024-02-15T10:20:36;13.10;99.90
20726;DHT22;10524;48.132;8.518;2024-02-15T10:23:10;13.30;99.90
20726;DHT22;10524;48.132;8.518;2024-02-15T10:25:36;13.30;99.90
20726;DHT22;10524;48.132;8.518;2024-02-15T10:28:03;13.40;99.90
20726;DHT22;10524;48.132;8.518;2024-02-15T10:30:34;13.60;99.90
20726;DHT22;10524;48.132;8.518;2024-02-15T10:33:01;13.50;99.90
20726;DHT22;10524;48.132;8.518;2024-02-15T10:35:26;14.00;99.90
20726;DHT22;10524;48.132;8.518;2024-02-15T10:38:05;15.00;99.90
20726;DHT22;10524;48.132;8.518;2024-02-15T10:40:33;15.60;99.90
20726;DHT22;10524;48.132;8.518;2024-02-15T10:42:59;15.90;99.90
20726;DHT22;10524;48.132;8.518;2024-02-15T10:45:29;15.50;99.90
20726;DHT22;10524;48.132;8.518;2024-02-15T10:47:56;15.80;99.90
20726;DHT22;10524;48.132;8.518;2024-02-15T10:50:23;16.40;99.90
20726;DHT22;10524;48.132;8.518;2024-02-15T10:52:59;16.30;99.90
20726;DHT22;10524;48.132;8.518;2024-02-15T10:55:46;16.90;99.90
20726;DHT22;10524;48.132;8.518;2024-02-15T10:58:18;17.40;99.90
20726;DHT22;10524;48.132;8.518;2024-02-15T11:00:46;17.60;99.90
20726;DHT22;10524;48.132;8.518;2024-02-15T11:03:19;18.40;99.90
20726;DHT22;10524;48.132;8.518;2024-02-15T11:05:50;17.90;99.90
20726;DHT22;10524;48.132;8.518;2024-02-15T11:08:16;18.00;99.90
20726;DHT22;10524;48.132;8.518;2024-02-15T11:10:43;18.00;99.90
20726;DHT22;10524;48.132;8.518;2024-02-15T11:13:09;18.10;99.90
20726;DHT22;10524;48.132;8.518;2024-02-15T11:18:05;17.80;99.90
20726;DHT22;10524;48.132;8.518;2024-02-15T11:23:00;16.90;99.90
20726;DHT22;10524;48.132;8.518;2024-02-15T11:25:39;17.10;99.90
20726;DHT22;10524;48.132;8.518;2024-02-15T11:30:47;15.80;99.90
20726;DHT22;10524;48.132;8.518;2024-02-15T11:33:27;15.80;99.90
20726;DHT22;10524;48.132;8.518;2024-02-15T11:38:33;15.80;99.90
20726;DHT22;10524;48.132;8.518;2024-02-15T11:41:07;15.90;99.90
20726;DHT22;10524;48.132;8.518;2024-02-15T11:43:44;15.90;99.90
20726;DHT22;10524;48.132;8.518;2024-02-15T11:46:15;16.30;99.90
20726;DHT22;10524;48.132;8.518;2024-02-15T11:48:41;16.50;99.90
20726;DHT22;10524;48.132;8.518;2024-02-15T11:51:07;17.40;99.90
20726;DHT22;10524;48.132;8.518;2024-02-15T11:53:37;17.70;99.90
20726;DHT22;10524;48.132;8.518;2024-02-15T11:56:03;17.10;99.90
20726;DHT22;10524;48.132;8.518;2024-02-15T11:58:35;16.50;99.90
20726;DHT22;10524;48.132;8.518;2024-02-15T12:01:18;16.40;99.90
20726;DHT22;10524;48.132;8.518;2024-02-15T12:04:02;16.00;99.90
20726;DHT22;10524;48.132;8.518;2024-02-15T12:06:46;16.40;99.90
20726;DHT22;10524;48.132;8.518;2024-02-15T12:09:31;16.90;99.90
20726;DHT22;10524;48.132;8.518;2024-02-15T12:12:16;16.70;99.90
20726;DHT22;10524;48.132;8.518;2024-02-15T12:15:01;17.00;99.90
20726;DHT22;10524;48.132;8.518;2024-02-15T12:17:45;18.00;99.90
20726;DHT22;10524;48.132;8.518;2024-02-15T12:20:30;18.30;99.90
20726;DHT22;10524;48.132;8.518;2024-02-15T12:22:57;18.40;99.90
20726;DHT22;10524;48.132;8.518;2024-02-15T12:25:25;18.90;99.90
20726;DHT22;10524;48.132;8.518;2024-02-15T12:27:58;19.00;99.90
20726;DHT22;10524;48.132;8.518;2024-02-15T12:30:24;18.50;99.90
20726;DHT22;10524;48.132;8.518;2024-02-15T12:32:51;18.60;99.90
20726;DHT22;10524;48.132;8.518;2024-02-15T12:35:21;19.00;99.90
20726;DHT22;10524;48.132;8.518;2024-02-15T12:38:03;19.10;99.90
20726;DHT22;10524;48.132;8.518;2024-02-15T12:40:32;19.00;99.90
20726;DHT22;10524;48.132;8.518;2024-02-15T12:42:58;19.20;99.90
20726;DHT22;10524;48.132;8.518;2024-02-15T12:45:26;18.70;99.90
20726;DHT22;10524;48.132;8.518;2024-02-15T12:47:56;18.90;99.90
20726;DHT22;10524;48.132;8.518;2024-02-15T12:50:27;19.20;99.90
20726;DHT22;10524;48.132;8.518;2024-02-15T12:52:53;18.20;99.90
20726;DHT22;10524;48.132;8.518;2024-02-15T12:55:22;18.20;99.90
20726;DHT22;10524;48.132;8.518;2024-02-15T12:57:54;18.60;99.90
20726;DHT22;10524;48.132;8.518;2024-02-15T13:00:22;18.50;99.90
20726;DHT22;10524;48.132;8.518;2024-02-15T13:02:54;18.30;99.90
20726;DHT22;10524;48.132;8.518;2024-02-15T13:05:22;17.70;99.90
20726;DHT22;10524;48.132;8.518;2024-02-15T13:07:49;17.50;99.90
20726;DHT22;10524;48.132;8.518;2024-02-15T13:10:16;17.20;99.90
20726;DHT22;10524;48.132;8.518;2024-02-15T13:12:42;16.90;99.90
20726;DHT22;10524;48.132;8.518;2024-02-15T13:15:10;16.70;99.90
20726;DHT22;10524;48.132;8.518;2024-02-15T13:17:50;16.60;99.90
20726;DHT22;10524;48.132;8.518;2024-02-15T13:20:20;16.60;99.90
20726;DHT22;10524;48.132;8.518;2024-02-15T13:22:53;16.50;99.90
20726;DHT22;10524;48.132;8.518;2024-02-15T13:25:19;16.30;99.90
20726;DHT22;10524;48.132;8.518;2024-02-15T13:27:47;16.20;99.90
20726;DHT22;10524;48.132;8.518;2024-02-15T13:30:13;16.20;99.90
20726;DHT22;10524;48.132;8.518;2024-02-15T13:32:39;16.10;99.90
20726;DHT22;10524;48.132;8.518;2024-02-15T13:35:09;16.00;99.90
20726;DHT22;10524;48.132;8.518;2024-02-15T13:37:56;16.00;99.90
20726;DHT22;10524;48.132;8.518;2024-02-15T13:40:26;15.70;99.90
20726;DHT22;10524;48.132;8.518;2024-02-15T13:42:57;15.60;99.90
20726;DHT22;10524;48.132;8.518;2024-02-15T13:45:31;15.60;99.90
20726;DHT22;10524;48.132;8.518;2024-02-15T13:48:03;15.60;99.90
20726;DHT22;10524;48.132;8.518;2024-02-15T13:50:36;15.70;99.90
20726;DHT22;10524;48.132;8.518;2024-02-15T13:53:04;15.40;99.90
20726;DHT22;10524;48.132;8.518;2024-02-15T13:55:30;15.30;99.90
20726;DHT22;10524;48.132;8.518;2024-02-15T13:57:56;15.30;99.90
20726;DHT22;10524;48.132;8.518;2024-02-15T14:00:23;15.30;99.90
20726;DHT22;10524;48.132;8.518;2024-02-15T14:02:51;15.40;99.90
20726;DHT22;10524;48.132;8.518;2024-02-15T14:05:19;15.40;99.90
20726;DHT22;10524;48.132;8.518;2024-02-15T14:07:52;15.30;99.90
20726;DHT22;10524;48.132;8.518;2024-02-15T14:10:24;15.00;99.90
20726;DHT22;10524;48.132;8.518;2024-02-15T14:12:51;15.00;99.90
20726;DHT22;10524;48.132;8.518;2024-02-15T14:15:32;15.00;99.90
20726;DHT22;10524;48.132;8.518;2024-02-15T14:18:08;15.00;99.90
20726;DHT22;10524;48.132;8.518;2024-02-15T14:20:36;15.00;99.90
20726;DHT22;10524;48.132;8.518;2024-02-15T14:23:03;14.80;99.90
20726;DHT22;10524;48.132;8.518;2024-02-15T14:25:32;14.80;99.90
20726;DHT22;10524;48.132;8.518;2024-02-15T14:27:58;14.90;99.90
20726;DHT22;10524;48.132;8.518;2024-02-15T14:30:24;14.90;99.90
20726;DHT22;10524;48.132;8.518;2024-02-15T14:33:09;14.70;99.90
20726;DHT22;10524;48.132;8.518;2024-02-15T14:35:38;14.60;99.90
20726;DHT22;10524;48.132;8.518;2024-02-15T14:38:09;14.60;99.90
20726;DHT22;10524;48.132;8.518;2024-02-15T14:40:40;14.50;99.90
20726;DHT22;10524;48.132;8.518;2024-02-15T14:43:08;14.40;99.90
20726;DHT22;10524;48.132;8.518;2024-02-15T14:45:39;14.40;99.90
20726;DHT22;10524;48.132;8.518;2024-02-15T14:48:08;14.40;99.90
20726;DHT22;10524;48.132;8.518;2024-02-15T14:50:41;14.40;99.90
20726;DHT22;10524;48.132;8.518;2024-02-15T14:53:07;14.50;99.90
20726;DHT22;10524;48.132;8.518;2024-02-15T14:55:36;14.40;99.90
20726;DHT22;10524;48.132;8.518;2024-02-15T14:58:08;14.30;99.90
20726;DHT22;10524;48.132;8.518;2024-02-15T15:00:35;14.30;99.90
20726;DHT22;10524;48.132;8.518;2024-02-15T15:03:00;14.20;99.90
20726;DHT22;10524;48.132;8.518;2024-02-15T15:05:28;14.10;99.90
20726;DHT22;10524;48.132;8.518;2024-02-15T15:08:12;14.10;99.90
20726;DHT22;10524;48.132;8.518;2024-02-15T15:10:56;14.00;99.90
20726;DHT22;10524;48.132;8.518;2024-02-15T15:13:41;13.80;99.90
20726;DHT22;10524;48.132;8.518;2024-02-15T15:16:07;13.70;99.90
20726;DHT22;10524;48.132;8.518;2024-02-15T15:18:33;13.60;99.90
20726;DHT22;10524;48.132;8.518;2024-02-15T15:21:02;13.60;99.90
20726;DHT22;10524;48.132;8.518;2024-02-15T15:23:28;13.50;99.90
20726;DHT22;10524;48.132;8.518;2024-02-15T15:26:00;13.40;99.90
20726;DHT22;10524;48.132;8.518;2024-02-15T15:28:27;13.40;99.90
20726;DHT22;10524;48.132;8.518;2024-02-15T15:30:53;13.30;99.90
20726;DHT22;10524;48.132;8.518;2024-02-15T15:33:20;13.20;99.90
20726;DHT22;10524;48.132;8.518;2024-02-15T15:35:47;13.10;99.90
20726;DHT22;10524;48.132;8.518;2024-02-15T15:38:14;13.00;99.90
20726;DHT22;10524;48.132;8.518;2024-02-15T15:40:40;13.00;99.90
20726;DHT22;10524;48.132;8.518;2024-02-15T15:43:07;12.90;99.90
20726;DHT22;10524;48.132;8.518;2024-02-15T15:45:34;12.80;99.90
20726;DHT22;10524;48.132;8.518;2024-02-15T15:48:01;12.70;99.90
20726;DHT22;10524;48.132;8.518;2024-02-15T15:50:27;12.60;99.90
20726;DHT22;10524;48.132;8.518;2024-02-15T15:52:54;12.50;99.90
20726;DHT22;10524;48.132;8.518;2024-02-15T15:55:20;12.40;99.90
20726;DHT22;10524;48.132;8.518;2024-02-15T15:57:46;12.30;99.90
20726;DHT22;10524;48.132;8.518;2024-02-15T16:00:12;12.30;99.90